Airfield :
LOGIN :

Register | Disclaimer

   EN    FR    IT 

 










Legend :    VFR   Marginal VFR   IFR   Intensive IFR   Very Intensive IFR
Visi :
Ceiling :
>= 8 km
>= 3000ft
5 to 8 km
1000 to 3000 ft
1500m to 5 km
500 to 1000 ft
800 to 1500m
200 to 500 ft
< 800m
< 200 ft
Symbols :   Thunderstorms  Fog  Heavy snow  Heavy precipitations  Wind > 20 kt
SIGMETs :     Misc.  Thunderstorms  Icing  Turbulence  Mountain Waves  Volcanic Ashes






- Airport Elevation : 16 ft
- IATA code : SDR


LEXJ - Santander Cantabria

CURRENT METAR :
  • 061800Z AUTO 02005KT 340V060 7000 FEW013 SCT028 BKN039 17/14 Q1011

EXPIRED METARs :
  • 061730Z AUTO 01007KT 330V040 7000 SCT013 BKN022 OVC050 17/15 Q1011
  • 061700Z AUTO 32006KT 280V010 4700 BR BKN036 BKN047 17/15 Q1011
  • 061630Z AUTO 31008KT 270V340 9000 BKN017 BKN023 OVC034 18/15 Q1010
  • 061600Z AUTO 33007KT 290V030 8000 SCT024 BKN033 BKN058 18/14 Q1010
  • 061530Z AUTO 32008KT 280V010 7000 SCT016 BKN025 BKN031 18/15 Q1010

TAF TAF LEXJ
Valid from the 06 at 15:00 until the 07 at 15:00 UTC


061400Z 0615/0715 30009KT 9999 SCT025 BKN040 TX17/0714Z TN13/0703Z
PROB40
TEMPO 0615/0621 3000 RA SHRA BKN010 SCT030TCU
PROB30
TEMPO 0621/0709 3000 RADZ BKN010



MET'MAP, your aeronautical weather chart ! - Copyright ORBIFLY December 2007 - Disclaimer

ORBIFLY MET'MAP TEAM :

Programming & Development : Alexandra Zaïnal
Concept & original design : Baudouin d'Aumeries
Assistance for programming : Marc-Olivier Méhu
Technical & hardware support : Manuel Goepfert

Contact : metmap@orbifly.com




SOURCES & CREDITS :

   NOAA